createdAt,value
2019-04-25T00:01:52.318Z,2.30
2019-04-25T00:04:21.579Z,2.17
2019-04-25T00:06:49.551Z,2.20
2019-04-25T00:09:18.618Z,3.30
2019-04-25T00:11:47.872Z,2.27
2019-04-25T00:14:16.056Z,2.20
2019-04-25T00:16:45.230Z,1.40
2019-04-25T00:19:13.153Z,2.80
2019-04-25T00:22:01.851Z,4.93
2019-04-25T00:24:37.140Z,2.13
2019-04-25T00:27:05.104Z,1.90
2019-04-25T00:29:32.999Z,1.90
2019-04-25T00:32:01.673Z,1.90
2019-04-25T00:34:29.743Z,2.30
2019-04-25T00:36:57.628Z,1.80
2019-04-25T00:39:25.802Z,2.53
2019-04-25T00:41:53.751Z,1.60
2019-04-25T00:44:21.962Z,2.50
2019-04-25T00:46:54.075Z,2.10
2019-04-25T00:49:19.591Z,6.53
2019-04-25T00:51:48.241Z,2.00
2019-04-25T00:54:16.285Z,2.43
2019-04-25T00:56:46.063Z,2.63
2019-04-25T00:59:22.375Z,3.00
2019-04-25T01:02:12.093Z,2.30
2019-04-25T01:04:41.798Z,3.53
2019-04-25T01:07:09.658Z,2.57
2019-04-25T01:09:37.533Z,4.20
2019-04-25T01:12:05.446Z,4.03
2019-04-25T01:14:33.713Z,5.43
2019-04-25T01:17:01.827Z,2.67
2019-04-25T01:19:29.720Z,1.60
2019-04-25T01:21:57.590Z,1.70
2019-04-25T01:24:25.555Z,4.00
2019-04-25T01:26:53.853Z,1.63
2019-04-25T01:29:23.467Z,1.50
2019-04-25T01:31:52.158Z,3.00
2019-04-25T01:34:27.299Z,2.17
2019-04-25T01:37:09.061Z,1.50
2019-04-25T01:39:48.949Z,1.60
2019-04-25T01:42:35.055Z,3.73
2019-04-25T01:45:04.040Z,2.40
2019-04-25T01:47:33.524Z,1.50
2019-04-25T01:50:01.705Z,1.43
2019-04-25T01:52:29.562Z,2.60
2019-04-25T01:54:57.500Z,2.17
2019-04-25T01:57:25.372Z,3.57
2019-04-25T01:59:54.069Z,1.70
2019-04-25T02:02:24.561Z,2.00
2019-04-25T02:04:54.751Z,2.07
2019-04-25T02:07:23.352Z,2.57
2019-04-25T02:09:52.185Z,1.83
2019-04-25T02:12:29.080Z,1.60
2019-04-25T02:14:57.690Z,2.90
2019-04-25T02:17:26.003Z,2.07
2019-04-25T02:19:55.507Z,2.63
2019-04-25T02:22:24.301Z,1.93
2019-04-25T02:24:54.348Z,1.83
2019-04-25T02:27:22.029Z,2.33
2019-04-25T02:29:49.893Z,1.90
2019-04-25T02:32:17.732Z,2.30
2019-04-25T02:34:45.802Z,2.20
2019-04-25T02:37:14.561Z,2.77
2019-04-25T02:39:44.734Z,2.73
2019-04-25T02:42:14.311Z,2.37
2019-04-25T02:44:46.966Z,1.47
2019-04-25T02:47:25.359Z,3.53
2019-04-25T02:50:10.841Z,3.70
2019-04-25T02:52:51.551Z,4.57
2019-04-25T02:55:31.174Z,4.23
2019-04-25T02:57:49.271Z,2.57
2019-04-25T03:00:24.639Z,4.17
2019-04-25T03:02:52.003Z,5.10
2019-04-25T03:05:19.893Z,3.93
2019-04-25T03:07:47.775Z,4.40
2019-04-25T03:10:15.912Z,5.27
2019-04-25T03:12:44.671Z,5.60
2019-04-25T03:15:14.494Z,4.60
2019-04-25T03:17:44.394Z,4.37
2019-04-25T03:20:50.147Z,5.57
2019-04-25T03:23:36.010Z,5.50
2019-04-25T03:26:05.824Z,5.07
2019-04-25T03:28:33.957Z,4.47
2019-04-25T03:31:04.510Z,4.80
2019-04-25T03:33:31.592Z,3.50
2019-04-25T03:35:59.437Z,4.40
2019-04-25T03:38:27.279Z,4.30
2019-04-25T03:40:55.170Z,3.50
2019-04-25T03:43:23.244Z,4.03
2019-04-25T03:45:51.450Z,3.70
2019-04-25T03:48:19.418Z,5.10
2019-04-25T03:50:47.242Z,4.20
2019-04-25T03:53:15.194Z,3.90
2019-04-25T03:55:44.371Z,3.37
2019-04-25T03:58:13.111Z,4.00
2019-04-25T04:00:42.035Z,3.80
2019-04-25T04:03:09.968Z,4.50
2019-04-25T04:05:37.868Z,5.73
2019-04-25T04:08:06.484Z,3.50
2019-04-25T04:10:34.407Z,3.50
2019-04-25T04:13:02.295Z,5.33
2019-04-25T04:15:30.145Z,3.70
2019-04-25T04:18:17.366Z,5.50
2019-04-25T04:21:19.628Z,5.40
2019-04-25T04:23:57.107Z,5.60
2019-04-25T04:26:24.480Z,7.13
2019-04-25T04:28:53.319Z,4.53
2019-04-25T04:31:21.273Z,5.60
2019-04-25T04:33:49.149Z,5.97
2019-04-25T04:36:17.712Z,5.63
2019-04-25T04:38:46.934Z,5.47
2019-04-25T04:41:15.456Z,8.57
2019-04-25T04:43:44.207Z,7.47
2019-04-25T04:46:13.622Z,5.43
2019-04-25T04:48:41.673Z,6.30
2019-04-25T04:51:10.478Z,7.00
2019-04-25T04:53:38.401Z,8.17
2019-04-25T04:56:06.306Z,6.97
2019-04-25T04:58:34.368Z,7.57
2019-04-25T05:01:03.682Z,7.13
2019-04-25T05:03:40.589Z,6.67
2019-04-25T05:06:23.448Z,7.90
2019-04-25T05:08:55.647Z,6.47
2019-04-25T05:11:25.186Z,7.80
2019-04-25T05:13:54.031Z,8.43
2019-04-25T05:16:23.706Z,9.33
2019-04-25T05:18:55.078Z,7.33
2019-04-25T05:21:21.355Z,7.93
2019-04-25T05:23:49.282Z,6.83
2019-04-25T05:26:17.236Z,7.37
2019-04-25T05:28:45.162Z,5.00
2019-04-25T05:31:25.636Z,7.70
2019-04-25T05:33:53.725Z,5.50
2019-04-25T05:36:21.828Z,5.97
2019-04-25T05:38:49.798Z,9.07
2019-04-25T05:41:25.572Z,6.07
2019-04-25T05:43:53.641Z,6.00
2019-04-25T05:46:21.648Z,5.03
2019-04-25T05:48:49.567Z,5.07
2019-04-25T05:51:17.752Z,4.63
2019-04-25T05:53:47.120Z,5.07
2019-04-25T05:56:16.442Z,4.57
2019-04-25T05:58:44.492Z,4.17
2019-04-25T06:01:13.381Z,5.77
2019-04-25T06:03:41.493Z,4.10
2019-04-25T06:06:09.422Z,5.87
2019-04-25T06:08:44.143Z,4.30
2019-04-25T06:11:40.274Z,17.43
2019-04-25T06:14:10.488Z,6.30
2019-04-25T06:16:38.998Z,4.73
2019-04-25T06:19:18.448Z,4.10
2019-04-25T06:21:43.843Z,7.03
2019-04-25T06:24:30.224Z,4.47
2019-04-25T06:27:17.539Z,7.93
2019-04-25T06:29:57.600Z,5.53
2019-04-25T06:32:17.058Z,3.63
2019-04-25T06:34:44.958Z,5.57
2019-04-25T06:37:13.923Z,3.00
2019-04-25T06:39:41.906Z,6.63
2019-04-25T06:42:09.773Z,4.63
2019-04-25T06:44:43.663Z,3.43
2019-04-25T06:47:25.620Z,5.27
2019-04-25T06:49:53.587Z,3.70
2019-04-25T06:52:24.639Z,2.43
2019-04-25T06:54:53.291Z,3.43
2019-04-25T06:57:22.150Z,3.00
2019-04-25T06:59:50.243Z,3.43
2019-04-25T07:02:18.336Z,2.00
2019-04-25T07:04:46.214Z,2.80
2019-04-25T07:07:14.918Z,2.70
2019-04-25T07:09:43.357Z,3.90
2019-04-25T07:12:13.344Z,3.20
2019-04-25T07:14:41.047Z,3.13
2019-04-25T07:17:09.070Z,3.00
2019-04-25T07:19:37.090Z,4.80
2019-04-25T07:22:05.019Z,3.00
2019-04-25T07:24:35.190Z,2.90
2019-04-25T07:27:20.498Z,2.50
2019-04-25T07:30:26.972Z,2.93
2019-04-25T07:32:50.535Z,2.40
2019-04-25T07:35:19.371Z,2.63
2019-04-25T07:37:47.210Z,2.83
2019-04-25T07:40:15.612Z,1.60
2019-04-25T07:42:43.917Z,3.00
2019-04-25T07:45:14.104Z,1.27
2019-04-25T07:47:43.934Z,1.20
2019-04-25T07:50:13.911Z,1.40
2019-04-25T07:52:44.331Z,3.53
2019-04-25T07:55:13.736Z,1.60
2019-04-25T07:57:42.585Z,2.03
2019-04-25T08:00:13.245Z,2.30
2019-04-25T08:02:42.002Z,1.17
2019-04-25T08:05:11.060Z,0.93
2019-04-25T08:07:39.409Z,2.27
2019-04-25T08:10:08.767Z,3.70
2019-04-25T08:12:37.274Z,1.73
2019-04-25T08:15:16.865Z,1.47
2019-04-25T08:18:15.835Z,2.30
2019-04-25T08:20:43.879Z,1.50
2019-04-25T08:23:13.968Z,0.73
2019-04-25T08:25:43.311Z,4.13
2019-04-25T08:28:11.426Z,0.93
2019-04-25T08:30:39.334Z,1.10
2019-04-25T08:33:07.301Z,1.53
2019-04-25T08:35:36.215Z,2.53
2019-04-25T08:38:05.874Z,2.00
2019-04-25T08:40:35.734Z,1.57
2019-04-25T08:43:04.288Z,3.33
2019-04-25T08:45:33.578Z,2.33
2019-04-25T08:48:03.545Z,1.53
2019-04-25T08:50:41.108Z,0.90
2019-04-25T08:53:09.546Z,1.17
2019-04-25T08:55:45.762Z,1.90
2019-04-25T08:58:26.653Z,3.00
2019-04-25T09:01:10.140Z,1.40
2019-04-25T09:03:51.843Z,3.60
2019-04-25T09:06:19.774Z,2.57
2019-04-25T09:08:47.660Z,2.30
2019-04-25T09:11:15.672Z,1.60
2019-04-25T09:13:44.913Z,1.83
2019-04-25T09:16:13.494Z,1.90
2019-04-25T09:18:44.001Z,1.70
2019-04-25T09:21:13.707Z,2.20
2019-04-25T09:23:43.393Z,3.20
2019-04-25T09:26:11.947Z,1.90
2019-04-25T09:28:41.059Z,1.23
2019-04-25T09:31:09.464Z,1.63
2019-04-25T09:33:37.368Z,2.30
2019-04-25T09:36:06.891Z,2.10
2019-04-25T09:38:35.752Z,3.30
2019-04-25T09:41:04.680Z,2.20
2019-04-25T09:43:33.511Z,4.27
2019-04-25T09:46:13.147Z,3.13
2019-04-25T09:49:01.237Z,4.33
2019-04-25T09:51:33.729Z,1.47
2019-04-25T09:54:15.250Z,1.33
2019-04-25T09:56:46.073Z,5.33
2019-04-25T09:59:26.740Z,3.63
2019-04-25T10:01:49.268Z,4.70
2019-04-25T10:04:17.200Z,1.40
2019-04-25T10:06:45.998Z,3.60
2019-04-25T10:09:15.693Z,4.10
2019-04-25T10:11:45.049Z,2.30
2019-04-25T10:14:18.233Z,4.13
2019-04-25T10:16:46.189Z,5.73
2019-04-25T10:19:14.061Z,1.47
2019-04-25T10:21:41.947Z,2.57
2019-04-25T10:24:09.830Z,4.77
2019-04-25T10:26:38.628Z,1.83
2019-04-25T10:29:07.649Z,2.57
2019-04-25T10:31:35.592Z,4.77
2019-04-25T10:34:03.825Z,3.43
2019-04-25T10:36:33.516Z,2.10
2019-04-25T10:39:08.026Z,1.63
2019-04-25T10:41:33.686Z,2.40
2019-04-25T10:44:01.307Z,1.10
2019-04-25T10:46:29.350Z,2.93
2019-04-25T10:48:57.265Z,1.57
2019-04-25T10:51:25.249Z,1.23
2019-04-25T10:53:53.868Z,2.63
2019-04-25T10:56:24.340Z,1.83
2019-04-25T10:58:54.776Z,5.13
2019-04-25T11:01:22.135Z,1.83
2019-04-25T11:04:13.759Z,2.77
2019-04-25T11:06:41.884Z,2.77
2019-04-25T11:09:13.769Z,1.80
2019-04-25T11:11:41.982Z,1.40
2019-04-25T11:14:10.339Z,3.60
2019-04-25T11:16:38.326Z,0.77
2019-04-25T11:19:06.387Z,2.70
2019-04-25T11:21:34.855Z,1.60
2019-04-25T11:24:04.096Z,2.20
2019-04-25T11:26:34.492Z,3.50
2019-04-25T11:29:01.709Z,3.67
2019-04-25T11:31:37.730Z,1.50
2019-04-25T11:34:06.555Z,1.40
2019-04-25T11:36:35.624Z,2.20
2019-04-25T11:39:26.605Z,6.97
2019-04-25T11:41:55.599Z,2.43
2019-04-25T11:44:24.570Z,2.43
2019-04-25T11:46:52.719Z,1.10
2019-04-25T11:49:20.615Z,4.60
2019-04-25T11:51:48.656Z,1.80
2019-04-25T11:54:16.640Z,2.10
2019-04-25T11:56:45.991Z,2.20
2019-04-25T11:59:15.682Z,6.47
2019-04-25T12:01:45.367Z,1.23
2019-04-25T12:04:14.851Z,2.60
2019-04-25T12:06:45.531Z,1.80
2019-04-25T12:09:13.947Z,1.80
2019-04-25T12:11:44.485Z,2.30
2019-04-25T12:14:14.901Z,3.50
2019-04-25T12:16:48.481Z,1.07
2019-04-25T12:19:14.442Z,0.97
2019-04-25T12:21:42.541Z,0.63
2019-04-25T12:24:10.501Z,2.40
2019-04-25T12:26:39.038Z,1.93
2019-04-25T12:29:07.028Z,1.80
2019-04-25T12:31:35.008Z,1.93
2019-04-25T12:34:03.437Z,1.33
2019-04-25T12:36:31.560Z,1.57
2019-04-25T12:39:01.010Z,1.80
2019-04-25T12:41:29.898Z,1.93
2019-04-25T12:44:11.925Z,0.73
2019-04-25T12:46:43.626Z,0.60
2019-04-25T12:49:13.139Z,2.50
2019-04-25T12:51:42.388Z,1.63
2019-04-25T12:54:10.675Z,1.37
2019-04-25T12:56:38.975Z,1.80
2019-04-25T12:59:07.345Z,0.80
2019-04-25T13:01:37.614Z,1.73
2019-04-25T13:04:06.359Z,0.60
2019-04-25T13:06:34.359Z,2.80
2019-04-25T13:09:03.718Z,0.60
2019-04-25T13:11:33.322Z,1.90
2019-04-25T13:14:02.335Z,1.10
2019-04-25T13:16:30.344Z,0.83
2019-04-25T13:19:09.352Z,1.07
2019-04-25T13:21:28.011Z,2.70
2019-04-25T13:23:56.679Z,1.13
2019-04-25T13:26:27.703Z,0.80
2019-04-25T13:29:06.798Z,0.63
2019-04-25T13:31:54.022Z,0.50
2019-04-25T13:34:36.550Z,0.80
2019-04-25T13:37:05.319Z,3.40
2019-04-25T13:39:34.282Z,3.83
2019-04-25T13:42:03.727Z,0.83
2019-04-25T13:44:32.131Z,0.70
2019-04-25T13:47:00.431Z,1.03
2019-04-25T13:49:29.302Z,1.53
2019-04-25T13:51:57.275Z,2.43
2019-04-25T13:54:25.195Z,1.83
2019-04-25T13:56:53.435Z,0.40
2019-04-25T13:59:21.787Z,1.20
2019-04-25T14:01:50.709Z,2.23
2019-04-25T14:04:18.642Z,1.80
2019-04-25T14:06:46.572Z,3.23
2019-04-25T14:09:19.475Z,1.47
2019-04-25T14:11:47.355Z,1.20
2019-04-25T14:14:15.303Z,0.50
2019-04-25T14:17:02.996Z,1.37
2019-04-25T14:19:50.382Z,1.10
2019-04-25T14:22:18.532Z,1.80
2019-04-25T14:24:46.817Z,0.93
2019-04-25T14:27:16.434Z,3.40
2019-04-25T14:29:45.372Z,0.67
2019-04-25T14:32:14.753Z,1.77
2019-04-25T14:34:43.301Z,0.73
2019-04-25T14:37:12.838Z,1.33
2019-04-25T14:39:40.790Z,0.50
2019-04-25T14:42:08.887Z,0.50
2019-04-25T14:44:37.163Z,0.60
2019-04-25T14:47:07.661Z,0.77
2019-04-25T14:49:35.642Z,1.13
2019-04-25T14:52:03.658Z,0.70
2019-04-25T14:54:37.777Z,0.80
2019-04-25T14:57:11.084Z,0.50
2019-04-25T14:59:39.080Z,1.07
2019-04-25T15:02:07.128Z,3.43
2019-04-25T15:04:35.300Z,4.70
2019-04-25T15:07:03.495Z,1.63
2019-04-25T15:09:32.257Z,1.10
2019-04-25T15:12:00.246Z,0.60
2019-04-25T15:14:28.113Z,2.30
2019-04-25T15:16:56.108Z,0.50
2019-04-25T15:19:24.276Z,3.43
2019-04-25T15:21:53.154Z,1.70
2019-04-25T15:24:21.233Z,2.10
2019-04-25T15:26:49.288Z,2.90
2019-04-25T15:29:17.199Z,2.40
2019-04-25T15:31:55.349Z,4.13
2019-04-25T15:34:15.039Z,1.07
2019-04-25T15:36:57.706Z,2.60
2019-04-25T15:39:53.738Z,3.33
2019-04-25T15:42:46.726Z,1.27
2019-04-25T15:45:39.975Z,1.53
2019-04-25T15:48:08.459Z,3.13
2019-04-25T15:50:36.562Z,3.00
2019-04-25T15:53:04.610Z,1.60
2019-04-25T15:55:33.690Z,2.07
2019-04-25T15:58:01.878Z,3.03
2019-04-25T16:00:35.081Z,2.70
2019-04-25T16:03:03.183Z,3.60
2019-04-25T16:05:31.634Z,2.80
2019-04-25T16:07:59.601Z,3.47
2019-04-25T16:10:28.339Z,5.30
2019-04-25T16:12:56.532Z,1.60
2019-04-25T16:15:24.615Z,2.60
2019-04-25T16:17:52.762Z,1.20
2019-04-25T16:20:20.854Z,1.77
2019-04-25T16:22:48.823Z,2.27
2019-04-25T16:25:17.080Z,2.37
2019-04-25T16:27:45.179Z,2.43
2019-04-25T16:30:13.194Z,1.93
2019-04-25T16:32:41.434Z,0.90
2019-04-25T16:35:09.571Z,1.37
2019-04-25T16:37:37.803Z,1.27
2019-04-25T16:40:06.012Z,2.37
2019-04-25T16:42:34.256Z,1.80
2019-04-25T16:45:02.480Z,4.13
2019-04-25T16:47:31.164Z,2.57
2019-04-25T16:49:59.309Z,2.97
2019-04-25T16:52:30.263Z,1.93
2019-04-25T16:54:58.331Z,3.53
2019-04-25T16:57:26.248Z,0.70
2019-04-25T16:59:54.384Z,1.37
2019-04-25T17:02:32.957Z,0.97
2019-04-25T17:04:53.071Z,1.27
2019-04-25T17:07:21.087Z,1.10
2019-04-25T17:09:49.132Z,0.80
2019-04-25T17:12:17.612Z,4.83
2019-04-25T17:15:07.371Z,1.87
2019-04-25T17:18:00.303Z,1.50
2019-04-25T17:20:30.815Z,4.00
2019-04-25T17:22:59.238Z,2.33
2019-04-25T17:25:27.255Z,3.40
2019-04-25T17:27:58.908Z,4.03
2019-04-25T17:30:28.518Z,2.00
2019-04-25T17:33:14.529Z,1.53
2019-04-25T17:35:49.486Z,2.13
2019-04-25T17:38:21.744Z,1.90
2019-04-25T17:40:50.055Z,1.80
2019-04-25T17:43:18.205Z,2.13
2019-04-25T17:45:46.201Z,1.57
2019-04-25T17:48:14.077Z,3.63
2019-04-25T17:50:42.449Z,2.57
2019-04-25T17:53:10.688Z,4.00
2019-04-25T17:55:39.525Z,3.50
2019-04-25T17:58:07.627Z,1.00
2019-04-25T18:00:37.877Z,1.20
2019-04-25T18:03:07.683Z,3.17
2019-04-25T18:05:36.423Z,4.17
2019-04-25T18:08:04.651Z,2.53
2019-04-25T18:10:34.290Z,1.97
2019-04-25T18:13:02.457Z,4.63
2019-04-25T18:15:48.420Z,1.70
2019-04-25T18:18:46.908Z,2.40
2019-04-25T18:21:18.345Z,1.23
2019-04-25T18:24:20.305Z,1.50
2019-04-25T18:26:52.700Z,1.13
2019-04-25T18:29:20.687Z,0.97
2019-04-25T18:31:48.724Z,0.70
2019-04-25T18:34:26.543Z,0.97
2019-04-25T18:37:04.031Z,0.77
2019-04-25T18:39:36.607Z,0.73
2019-04-25T18:42:26.484Z,3.97
2019-04-25T18:44:54.443Z,1.27
2019-04-25T18:47:22.957Z,0.80
2019-04-25T18:49:50.991Z,0.97
2019-04-25T18:52:53.335Z,0.47
2019-04-25T18:55:27.540Z,0.70
2019-04-25T18:58:09.402Z,0.80
2019-04-25T19:01:14.918Z,0.83
2019-04-25T19:03:54.880Z,1.10
2019-04-25T19:06:23.080Z,0.43
2019-04-25T19:08:53.245Z,0.50
2019-04-25T19:11:21.184Z,2.10
2019-04-25T19:13:49.172Z,0.80
2019-04-25T19:16:17.264Z,0.50
2019-04-25T19:18:46.688Z,1.07
2019-04-25T19:21:14.874Z,0.47
2019-04-25T19:23:43.689Z,1.77
2019-04-25T19:26:11.823Z,1.90
2019-04-25T19:28:40.976Z,0.67
2019-04-25T19:31:09.127Z,0.63
2019-04-25T19:33:37.687Z,1.77
2019-04-25T19:36:05.563Z,0.67
2019-04-25T19:38:33.478Z,1.37
2019-04-25T19:41:11.362Z,0.73
2019-04-25T19:44:10.313Z,0.53
2019-04-25T19:46:47.107Z,0.93
2019-04-25T19:49:15.026Z,1.43
2019-04-25T19:51:43.111Z,0.60
2019-04-25T19:54:11.193Z,0.63
2019-04-25T19:56:39.141Z,0.60
2019-04-25T19:59:07.040Z,1.30
2019-04-25T20:01:34.910Z,0.60
2019-04-25T20:04:12.359Z,0.70
2019-04-25T20:06:57.893Z,1.00
2019-04-25T20:09:51.144Z,1.60
2019-04-25T20:12:19.557Z,1.43
2019-04-25T20:14:47.518Z,0.90
2019-04-25T20:17:15.455Z,0.80
2019-04-25T20:19:44.881Z,0.77
2019-04-25T20:22:13.265Z,1.10
2019-04-25T20:24:41.131Z,1.40
2019-04-25T20:27:09.012Z,1.00
2019-04-25T20:29:36.968Z,2.27
2019-04-25T20:32:07.142Z,3.90
2019-04-25T20:34:34.693Z,1.50
2019-04-25T20:37:02.537Z,0.93
2019-04-25T20:39:30.498Z,1.10
2019-04-25T20:41:58.422Z,1.43
2019-04-25T20:44:26.381Z,1.30
2019-04-25T20:46:54.796Z,1.40
2019-04-25T20:49:22.683Z,1.10
2019-04-25T20:51:50.674Z,1.63
2019-04-25T20:54:18.587Z,1.40
2019-04-25T20:56:47.868Z,1.17
2019-04-25T20:59:16.054Z,1.50
2019-04-25T21:01:43.926Z,2.10
2019-04-25T21:04:30.891Z,4.13
2019-04-25T21:06:58.767Z,3.00
2019-04-25T21:09:26.646Z,1.67
2019-04-25T21:11:54.489Z,1.57
2019-04-25T21:14:29.751Z,3.13
2019-04-25T21:17:01.391Z,1.67
2019-04-25T21:19:31.257Z,1.63
2019-04-25T21:21:59.206Z,1.90
2019-04-25T21:24:27.142Z,1.47
2019-04-25T21:26:55.059Z,1.67
2019-04-25T21:29:23.384Z,3.30
2019-04-25T21:31:51.352Z,1.30
2019-04-25T21:34:25.753Z,1.30
2019-04-25T21:36:48.867Z,1.70
2019-04-25T21:39:31.987Z,1.97
2019-04-25T21:42:19.649Z,1.60
2019-04-25T21:44:47.844Z,1.83
2019-04-25T21:47:15.706Z,2.30
2019-04-25T21:49:43.971Z,2.20
2019-04-25T21:52:11.936Z,1.90
2019-04-25T21:54:40.039Z,2.10
2019-04-25T21:57:08.239Z,2.20
2019-04-25T21:59:36.216Z,1.80
2019-04-25T22:02:04.885Z,1.70
2019-04-25T22:04:39.647Z,2.03
2019-04-25T22:07:03.011Z,2.50
2019-04-25T22:09:31.613Z,1.53
2019-04-25T22:11:59.838Z,2.73
2019-04-25T22:14:27.731Z,1.67
2019-04-25T22:16:55.745Z,2.17
2019-04-25T22:19:24.879Z,2.33
2019-04-25T22:21:53.036Z,2.03
2019-04-25T22:24:20.882Z,3.13
2019-04-25T22:26:50.731Z,2.23
2019-04-25T22:29:18.783Z,2.53
2019-04-25T22:31:53.765Z,1.90
2019-04-25T22:34:27.146Z,1.80
2019-04-25T22:36:55.051Z,2.50
2019-04-25T22:39:23.057Z,3.00
2019-04-25T22:41:51.307Z,1.93
2019-04-25T22:44:20.999Z,2.30
2019-04-25T22:46:49.195Z,1.77
2019-04-25T22:49:17.151Z,2.17
2019-04-25T22:51:45.103Z,2.27
2019-04-25T22:54:13.254Z,1.77
2019-04-25T22:56:41.130Z,2.67
2019-04-25T22:59:09.438Z,1.83
2019-04-25T23:01:51.367Z,2.23
2019-04-25T23:04:36.885Z,2.83
2019-04-25T23:07:05.851Z,1.70
2019-04-25T23:09:35.880Z,1.67
2019-04-25T23:12:04.748Z,2.03
2019-04-25T23:14:33.524Z,1.90
2019-04-25T23:17:01.499Z,1.83
2019-04-25T23:19:29.511Z,2.30
2019-04-25T23:21:57.693Z,2.00
2019-04-25T23:24:27.782Z,1.73
2019-04-25T23:27:06.365Z,1.80
2019-04-25T23:29:34.255Z,3.00
2019-04-25T23:32:02.216Z,1.80
2019-04-25T23:34:31.672Z,2.10
2019-04-25T23:36:59.513Z,1.87
2019-04-25T23:39:27.536Z,1.90
2019-04-25T23:41:55.472Z,1.97
2019-04-25T23:44:23.415Z,1.80
2019-04-25T23:46:51.766Z,2.03
2019-04-25T23:49:19.672Z,1.70
2019-04-25T23:51:48.114Z,1.60
2019-04-25T23:54:17.137Z,1.73
2019-04-25T23:56:45.290Z,1.90
2019-04-25T23:59:13.572Z,2.37
